sensor_id;sensor_type;location;lat;lon;timestamp;pressure;altitude;pressure_sealevel;temperature;humidity
30744;BME280;17486;46.738;7.622;2022-12-07T00:01:06;95281.06;;;2.52;64.69
30744;BME280;17486;46.738;7.622;2022-12-07T00:03:32;95289.56;;;2.54;64.58
30744;BME280;17486;46.738;7.622;2022-12-07T00:05:58;95250.63;;;2.30;64.58
30744;BME280;17486;46.738;7.622;2022-12-07T00:08:24;95250.63;;;2.30;64.60
30744;BME280;17486;46.738;7.622;2022-12-07T00:10:49;95237.94;;;2.22;64.97
30744;BME280;17486;46.738;7.622;2022-12-07T00:13:15;95285.38;;;2.49;64.90
30744;BME280;17486;46.738;7.622;2022-12-07T00:15:40;95293.94;;;2.48;64.70
30744;BME280;17486;46.738;7.622;2022-12-07T00:18:06;95278.50;;;2.50;65.13
30744;BME280;17486;46.738;7.622;2022-12-07T00:20:31;95242.00;;;2.34;64.77
30744;BME280;17486;46.738;7.622;2022-12-07T00:22:58;95277.56;;;2.56;64.89
30744;BME280;17486;46.738;7.622;2022-12-07T00:25:23;95276.69;;;2.55;64.64
30744;BME280;17486;46.738;7.622;2022-12-07T00:27:49;95232.66;;;2.30;64.63
30744;BME280;17486;46.738;7.622;2022-12-07T00:30:14;95275.13;;;2.48;64.71
30744;BME280;17486;46.738;7.622;2022-12-07T00:32:40;95274.13;;;2.55;64.50
30744;BME280;17486;46.738;7.622;2022-12-07T00:35:05;95230.06;;;2.31;64.73
30744;BME280;17486;46.738;7.622;2022-12-07T00:37:31;95222.44;;;2.28;64.55
30744;BME280;17486;46.738;7.622;2022-12-07T00:39:56;95226.69;;;2.29;64.56
30744;BME280;17486;46.738;7.622;2022-12-07T00:42:22;95241.97;;;2.36;64.26
30744;BME280;17486;46.738;7.622;2022-12-07T00:44:47;95225.13;;;2.21;64.40
30744;BME280;17486;46.738;7.622;2022-12-07T00:47:12;95262.44;;;2.40;64.65
30744;BME280;17486;46.738;7.622;2022-12-07T00:49:38;95267.47;;;2.45;64.54
30744;BME280;17486;46.738;7.622;2022-12-07T00:52:03;95232.75;;;2.24;64.44
30744;BME280;17486;46.738;7.622;2022-12-07T00:54:29;95226.78;;;2.23;64.67
30744;BME280;17486;46.738;7.622;2022-12-07T00:56:54;95243.78;;;2.29;64.51
30744;BME280;17486;46.738;7.622;2022-12-07T00:59:19;95253.00;;;2.41;64.53
30744;BME280;17486;46.738;7.622;2022-12-07T01:01:45;95274.25;;;2.49;64.18
30744;BME280;17486;46.738;7.622;2022-12-07T01:04:10;95264.03;;;2.46;64.59
30744;BME280;17486;46.738;7.622;2022-12-07T01:06:36;95269.16;;;2.46;64.45
30744;BME280;17486;46.738;7.622;2022-12-07T01:09:02;95267.50;;;2.43;65.08
30744;BME280;17486;46.738;7.622;2022-12-07T01:11:29;95252.28;;;2.32;64.93
30744;BME280;17486;46.738;7.622;2022-12-07T01:13:56;95229.59;;;2.09;64.98
30744;BME280;17486;46.738;7.622;2022-12-07T01:16:24;95259.22;;;2.27;64.89
30744;BME280;17486;46.738;7.622;2022-12-07T01:18:52;95244.84;;;2.17;65.14
30744;BME280;17486;46.738;7.622;2022-12-07T01:21:37;95239.81;;;2.12;65.11
30744;BME280;17486;46.738;7.622;2022-12-07T01:24:05;95268.50;;;2.36;65.40
30744;BME280;17486;46.738;7.622;2022-12-07T01:26:30;95272.69;;;2.40;65.01
30744;BME280;17486;46.738;7.622;2022-12-07T01:28:56;95223.47;;;2.18;65.34
30744;BME280;17486;46.738;7.622;2022-12-07T01:31:25;95261.50;;;2.44;65.16
30744;BME280;17486;46.738;7.622;2022-12-07T01:33:53;95258.06;;;2.45;65.15
30744;BME280;17486;46.738;7.622;2022-12-07T01:36:28;95256.47;;;2.38;65.04
30744;BME280;17486;46.738;7.622;2022-12-07T01:38:56;95239.50;;;2.31;64.83
30744;BME280;17486;46.738;7.622;2022-12-07T01:41:24;95220.84;;;2.23;65.48
30744;BME280;17486;46.738;7.622;2022-12-07T01:46:36;95236.00;;;2.35;65.37
30744;BME280;17486;46.738;7.622;2022-12-07T01:49:03;95249.53;;;2.43;65.37
30744;BME280;17486;46.738;7.622;2022-12-07T01:51:31;95257.13;;;2.49;65.25
30744;BME280;17486;46.738;7.622;2022-12-07T01:53:57;95228.22;;;2.38;65.34
30744;BME280;17486;46.738;7.622;2022-12-07T01:56:25;95264.59;;;2.62;65.17
30744;BME280;17486;46.738;7.622;2022-12-07T01:58:52;95253.47;;;2.63;65.27
30744;BME280;17486;46.738;7.622;2022-12-07T02:01:19;95256.91;;;2.63;65.35
30744;BME280;17486;46.738;7.622;2022-12-07T02:03:45;95275.63;;;2.69;65.40
30744;BME280;17486;46.738;7.622;2022-12-07T02:06:13;95246.63;;;2.63;65.12
30744;BME280;17486;46.738;7.622;2022-12-07T02:08:41;95222.13;;;2.45;64.84
30744;BME280;17486;46.738;7.622;2022-12-07T02:11:08;95224.69;;;2.45;65.00
30744;BME280;17486;46.738;7.622;2022-12-07T02:13:36;95240.00;;;2.52;64.84
30744;BME280;17486;46.738;7.622;2022-12-07T02:16:59;95264.53;;;2.67;64.77
30744;BME280;17486;46.738;7.622;2022-12-07T02:28:26;95249.81;;;2.75;64.64
30744;BME280;17486;46.738;7.622;2022-12-07T02:30:52;95249.00;;;2.73;64.44
30744;BME280;17486;46.738;7.622;2022-12-07T02:33:36;95224.41;;;2.61;64.61
30744;BME280;17486;46.738;7.622;2022-12-07T02:36:05;95225.31;;;2.57;64.25
30744;BME280;17486;46.738;7.622;2022-12-07T02:41:26;95205.66;;;2.57;64.02
30744;BME280;17486;46.738;7.622;2022-12-07T02:43:59;95255.69;;;2.81;64.48
30744;BME280;17486;46.738;7.622;2022-12-07T02:46:29;95208.16;;;2.60;63.99
30744;BME280;17486;46.738;7.622;2022-12-07T02:48:57;95208.19;;;2.59;64.03
30744;BME280;17486;46.738;7.622;2022-12-07T02:51:25;95245.41;;;2.81;63.95
30744;BME280;17486;46.738;7.622;2022-12-07T02:53:51;95257.34;;;2.84;64.08
30744;BME280;17486;46.738;7.622;2022-12-07T03:12:46;95246.00;;;2.94;64.22
30744;BME280;17486;46.738;7.622;2022-12-07T03:15:20;95228.06;;;2.93;64.59
30744;BME280;17486;46.738;7.622;2022-12-07T03:17:49;95234.94;;;2.91;64.48
30744;BME280;17486;46.738;7.622;2022-12-07T03:20:18;95248.66;;;2.91;64.41
30744;BME280;17486;46.738;7.622;2022-12-07T03:22:47;95248.69;;;2.88;64.45
30744;BME280;17486;46.738;7.622;2022-12-07T03:25:15;95252.13;;;2.89;64.55
30744;BME280;17486;46.738;7.622;2022-12-07T03:27:57;95244.41;;;2.89;64.56
30744;BME280;17486;46.738;7.622;2022-12-07T03:30:28;95255.53;;;2.89;63.96
30744;BME280;17486;46.738;7.622;2022-12-07T03:35:34;95211.34;;;2.73;64.24
30744;BME280;17486;46.738;7.622;2022-12-07T03:41:28;95220.44;;;2.88;64.42
30744;BME280;17486;46.738;7.622;2022-12-07T03:43:28;95226.25;;;2.98;64.14
30744;BME280;17486;46.738;7.622;2022-12-07T03:48:46;95223.75;;;2.93;64.00
30744;BME280;17486;46.738;7.622;2022-12-07T03:52:00;95225.50;;;2.93;63.99
30744;BME280;17486;46.738;7.622;2022-12-07T03:54:33;95220.31;;;2.94;64.26
30744;BME280;17486;46.738;7.622;2022-12-07T03:57:01;95184.03;;;2.69;64.29
30744;BME280;17486;46.738;7.622;2022-12-07T03:59:28;95218.69;;;2.90;64.20
30744;BME280;17486;46.738;7.622;2022-12-07T04:01:56;95215.31;;;2.88;64.62
30744;BME280;17486;46.738;7.622;2022-12-07T04:04:23;95183.16;;;2.70;64.38
30744;BME280;17486;46.738;7.622;2022-12-07T04:06:49;95216.09;;;2.92;64.54
30744;BME280;17486;46.738;7.622;2022-12-07T04:09:15;95174.53;;;2.73;64.30
30744;BME280;17486;46.738;7.622;2022-12-07T04:11:41;95210.91;;;2.93;63.99
30744;BME280;17486;46.738;7.622;2022-12-07T04:14:07;95212.72;;;2.90;64.42
30744;BME280;17486;46.738;7.622;2022-12-07T04:19:11;95223.72;;;2.96;64.08
30744;BME280;17486;46.738;7.622;2022-12-07T04:21:36;95177.06;;;2.74;64.03
30744;BME280;17486;46.738;7.622;2022-12-07T04:24:02;95177.06;;;2.74;63.86
30744;BME280;17486;46.738;7.622;2022-12-07T04:26:27;95219.44;;;2.95;64.00
30744;BME280;17486;46.738;7.622;2022-12-07T04:28:53;95212.53;;;2.99;63.97
30744;BME280;17486;46.738;7.622;2022-12-07T04:31:18;95215.97;;;2.98;63.93
30744;BME280;17486;46.738;7.622;2022-12-07T04:33:44;95212.53;;;2.99;63.83
30744;BME280;17486;46.738;7.622;2022-12-07T04:36:09;95218.47;;;3.01;63.95
30744;BME280;17486;46.738;7.622;2022-12-07T04:38:34;95192.22;;;2.87;64.27
30744;BME280;17486;46.738;7.622;2022-12-07T04:41:07;95213.34;;;3.01;64.57
30744;BME280;17486;46.738;7.622;2022-12-07T04:43:33;95188.00;;;2.86;64.62
30744;BME280;17486;46.738;7.622;2022-12-07T04:45:59;95209.94;;;3.01;64.47
30744;BME280;17486;46.738;7.622;2022-12-07T04:48:25;95183.75;;;2.81;64.68
30744;BME280;17486;46.738;7.622;2022-12-07T04:50:50;95224.38;;;3.06;64.58
30744;BME280;17486;46.738;7.622;2022-12-07T04:53:16;95206.56;;;2.97;64.72
30744;BME280;17486;46.738;7.622;2022-12-07T04:55:41;95221.00;;;3.04;64.65
30744;BME280;17486;46.738;7.622;2022-12-07T04:58:07;95221.91;;;3.02;64.68
30744;BME280;17486;46.738;7.622;2022-12-07T05:00:32;95186.28;;;2.85;64.63
30744;BME280;17486;46.738;7.622;2022-12-07T05:02:58;95220.94;;;3.07;64.31
30744;BME280;17486;46.738;7.622;2022-12-07T05:05:23;95209.03;;;3.03;64.54
30744;BME280;17486;46.738;7.622;2022-12-07T05:07:49;95185.47;;;2.82;64.47
30744;BME280;17486;46.738;7.622;2022-12-07T05:10:15;95215.91;;;3.03;64.41
30744;BME280;17486;46.738;7.622;2022-12-07T05:12:40;95218.47;;;3.03;64.56
30744;BME280;17486;46.738;7.622;2022-12-07T05:15:06;95180.31;;;2.82;64.59
30744;BME280;17486;46.738;7.622;2022-12-07T05:17:31;95215.03;;;3.02;64.42
30744;BME280;17486;46.738;7.622;2022-12-07T05:19:57;95203.97;;;3.00;64.34
30744;BME280;17486;46.738;7.622;2022-12-07T05:22:22;95175.19;;;2.82;64.66
30744;BME280;17486;46.738;7.622;2022-12-07T05:24:47;95178.59;;;2.85;64.41
30744;BME280;17486;46.738;7.622;2022-12-07T05:27:13;95227.81;;;3.05;64.36
30744;BME280;17486;46.738;7.622;2022-12-07T05:29:38;95182.84;;;2.84;64.44
30744;BME280;17486;46.738;7.622;2022-12-07T05:32:04;95216.69;;;3.05;64.52
30744;BME280;17486;46.738;7.622;2022-12-07T05:34:29;95179.50;;;2.82;64.48
30744;BME280;17486;46.738;7.622;2022-12-07T05:36:54;95226.13;;;3.04;64.90
30744;BME280;17486;46.738;7.622;2022-12-07T05:39:20;95217.63;;;3.01;64.57
30744;BME280;17486;46.738;7.622;2022-12-07T05:41:45;95212.53;;;2.99;64.51
30744;BME280;17486;46.738;7.622;2022-12-07T05:44:29;95210.75;;;3.03;64.55
30744;BME280;17486;46.738;7.622;2022-12-07T05:46:55;95215.91;;;3.01;64.70
30744;BME280;17486;46.738;7.622;2022-12-07T05:49:20;95214.28;;;2.97;64.52
30744;BME280;17486;46.738;7.622;2022-12-07T05:51:45;95184.63;;;2.82;64.40
30744;BME280;17486;46.738;7.622;2022-12-07T05:54:11;95208.19;;;3.01;64.35
30744;BME280;17486;46.738;7.622;2022-12-07T05:56:37;95183.75;;;2.81;64.48
30744;BME280;17486;46.738;7.622;2022-12-07T05:59:02;95174.47;;;2.76;64.33
30744;BME280;17486;46.738;7.622;2022-12-07T06:01:46;95168.44;;;2.78;64.09
30744;BME280;17486;46.738;7.622;2022-12-07T06:04:11;95208.19;;;3.01;64.12
30744;BME280;17486;46.738;7.622;2022-12-07T06:06:37;95199.69;;;2.99;64.28
30744;BME280;17486;46.738;7.622;2022-12-07T06:09:03;95169.25;;;2.79;64.05
30744;BME280;17486;46.738;7.622;2022-12-07T06:11:28;95203.06;;;3.01;64.06
30744;BME280;17486;46.738;7.622;2022-12-07T06:14:12;95175.22;;;2.81;64.09
30744;BME280;17486;46.738;7.622;2022-12-07T06:16:37;95162.47;;;2.76;64.34
30744;BME280;17486;46.738;7.622;2022-12-07T06:19:03;95199.75;;;2.96;64.24
30744;BME280;17486;46.738;7.622;2022-12-07T06:21:28;95190.41;;;2.92;64.52
30744;BME280;17486;46.738;7.622;2022-12-07T06:23:54;95196.34;;;2.95;64.05
30744;BME280;17486;46.738;7.622;2022-12-07T06:26:20;95161.59;;;2.77;64.15
30744;BME280;17486;46.738;7.622;2022-12-07T06:28:45;95188.59;;;2.97;64.05
30744;BME280;17486;46.738;7.622;2022-12-07T06:31:11;95159.91;;;2.78;64.07
30744;BME280;17486;46.738;7.622;2022-12-07T06:33:36;95169.22;;;2.82;64.45
30744;BME280;17486;46.738;7.622;2022-12-07T06:36:01;95214.25;;;3.00;64.29
30744;BME280;17486;46.738;7.622;2022-12-07T06:38:27;95176.06;;;2.81;63.99
30744;BME280;17486;46.738;7.622;2022-12-07T06:40:52;95196.25;;;3.00;64.03
30744;BME280;17486;46.738;7.622;2022-12-07T06:43:18;95211.63;;;3.02;64.04
30744;BME280;17486;46.738;7.622;2022-12-07T06:45:43;95208.22;;;2.99;64.01
30744;BME280;17486;46.738;7.622;2022-12-07T06:48:09;95174.44;;;2.77;64.27
30744;BME280;17486;46.738;7.622;2022-12-07T06:50:34;95182.03;;;2.84;64.15
30744;BME280;17486;46.738;7.622;2022-12-07T06:52:59;95204.13;;;2.92;64.08
30744;BME280;17486;46.738;7.622;2022-12-07T06:55:25;95218.44;;;3.04;64.32
30744;BME280;17486;46.738;7.622;2022-12-07T06:57:50;95215.91;;;3.01;64.33
30744;BME280;17486;46.738;7.622;2022-12-07T07:00:16;95177.84;;;2.79;64.29
30744;BME280;17486;46.738;7.622;2022-12-07T07:02:41;95183.75;;;2.81;64.16
30744;BME280;17486;46.738;7.622;2022-12-07T07:05:07;95190.56;;;2.86;63.85
30744;BME280;17486;46.738;7.622;2022-12-07T07:07:33;95219.34;;;3.02;64.04
30744;BME280;17486;46.738;7.622;2022-12-07T07:09:58;95206.53;;;3.00;63.95
30744;BME280;17486;46.738;7.622;2022-12-07T07:12:23;95220.09;;;3.05;63.81
30744;BME280;17486;46.738;7.622;2022-12-07T07:14:49;95218.47;;;3.01;63.76
30744;BME280;17486;46.738;7.622;2022-12-07T07:17:14;95225.50;;;2.93;63.56
30744;BME280;17486;46.738;7.622;2022-12-07T07:19:40;95219.69;;;2.85;63.83
30744;BME280;17486;46.738;7.622;2022-12-07T07:22:05;95217.97;;;2.84;63.90
30744;BME280;17486;46.738;7.622;2022-12-07T07:24:31;95209.53;;;2.78;63.68
30744;BME280;17486;46.738;7.622;2022-12-07T07:26:56;95227.34;;;2.86;63.88
30744;BME280;17486;46.738;7.622;2022-12-07T07:29:22;95241.78;;;2.92;63.46
30744;BME280;17486;46.738;7.622;2022-12-07T07:31:47;95233.25;;;2.91;63.77
30744;BME280;17486;46.738;7.622;2022-12-07T07:34:13;95234.06;;;2.92;63.70
30744;BME280;17486;46.738;7.622;2022-12-07T07:36:38;95230.59;;;2.94;63.61
30744;BME280;17486;46.738;7.622;2022-12-07T07:39:04;95236.59;;;2.95;62.80
30744;BME280;17486;46.738;7.622;2022-12-07T07:41:30;95240.84;;;2.97;63.56
30744;BME280;17486;46.738;7.622;2022-12-07T07:43:55;95229.03;;;2.87;63.31
30744;BME280;17486;46.738;7.622;2022-12-07T07:46:21;95223.16;;;2.82;63.50
30744;BME280;17486;46.738;7.622;2022-12-07T07:48:46;95256.22;;;2.99;63.16
30744;BME280;17486;46.738;7.622;2022-12-07T07:51:12;95212.09;;;2.78;62.91
30744;BME280;17486;46.738;7.622;2022-12-07T07:53:37;95243.34;;;3.01;63.17
30744;BME280;17486;46.738;7.622;2022-12-07T07:56:02;95209.53;;;2.78;63.16
30744;BME280;17486;46.738;7.622;2022-12-07T07:58:28;95240.84;;;2.97;62.95
30744;BME280;17486;46.738;7.622;2022-12-07T08:00:53;95252.75;;;3.02;63.13
30744;BME280;17486;46.738;7.622;2022-12-07T08:03:19;95214.59;;;2.81;63.13
30744;BME280;17486;46.738;7.622;2022-12-07T08:05:44;95254.44;;;3.03;62.77
30744;BME280;17486;46.738;7.622;2022-12-07T08:08:10;95245.78;;;3.07;63.13
30744;BME280;17486;46.738;7.622;2022-12-07T08:10:35;95248.34;;;3.05;62.86
30744;BME280;17486;46.738;7.622;2022-12-07T08:13:02;95227.88;;;3.02;62.89
30744;BME280;17486;46.738;7.622;2022-12-07T08:15:38;95248.19;;;3.14;62.88
30744;BME280;17486;46.738;7.622;2022-12-07T08:18:04;95243.84;;;3.17;62.80
30744;BME280;17486;46.738;7.622;2022-12-07T08:20:31;95228.75;;;3.03;62.55
30744;BME280;17486;46.738;7.622;2022-12-07T08:22:57;95237.19;;;3.08;62.78
30744;BME280;17486;46.738;7.622;2022-12-07T08:25:23;95206.72;;;2.89;63.12
30744;BME280;17486;46.738;7.622;2022-12-07T08:27:49;95239.03;;;3.03;63.13
30744;BME280;17486;46.738;7.622;2022-12-07T08:30:15;95230.44;;;3.02;63.21
30744;BME280;17486;46.738;7.622;2022-12-07T08:32:41;95206.66;;;2.94;63.34
30744;BME280;17486;46.738;7.622;2022-12-07T08:35:07;95248.06;;;3.21;63.44
30744;BME280;17486;46.738;7.622;2022-12-07T08:37:33;95238.56;;;3.24;63.29
30744;BME280;17486;46.738;7.622;2022-12-07T08:39:59;95241.97;;;3.26;63.42
30744;BME280;17486;46.738;7.622;2022-12-07T08:42:24;95241.88;;;3.29;63.16
30744;BME280;17486;46.738;7.622;2022-12-07T08:44:54;95245.28;;;3.30;63.24
30744;BME280;17486;46.738;7.622;2022-12-07T08:47:20;95240.16;;;3.30;62.83
30744;BME280;17486;46.738;7.622;2022-12-07T08:49:47;95247.94;;;3.27;62.80
30744;BME280;17486;46.738;7.622;2022-12-07T08:52:15;95250.66;;;3.19;62.79
30744;BME280;17486;46.738;7.622;2022-12-07T08:54:41;95210.84;;;2.98;62.84
30744;BME280;17486;46.738;7.622;2022-12-07T08:57:08;95246.34;;;3.21;62.71
30744;BME280;17486;46.738;7.622;2022-12-07T08:59:35;95218.28;;;3.12;62.77
30744;BME280;17486;46.738;7.622;2022-12-07T09:02:02;95240.16;;;3.30;62.81
30744;BME280;17486;46.738;7.622;2022-12-07T09:04:27;95241.75;;;3.36;62.60
30744;BME280;17486;46.738;7.622;2022-12-07T09:06:54;95222.31;;;3.24;62.52
30744;BME280;17486;46.738;7.622;2022-12-07T09:09:20;95242.47;;;3.42;62.69
30744;BME280;17486;46.738;7.622;2022-12-07T09:11:45;95220.50;;;3.29;62.74
30744;BME280;17486;46.738;7.622;2022-12-07T09:14:11;95248.31;;;3.49;62.51
30744;BME280;17486;46.738;7.622;2022-12-07T09:16:37;95217.72;;;3.38;62.68
30744;BME280;17486;46.738;7.622;2022-12-07T09:19:03;95209.25;;;3.33;62.77
30744;BME280;17486;46.738;7.622;2022-12-07T09:21:28;95213.53;;;3.34;62.47
30744;BME280;17486;46.738;7.622;2022-12-07T09:23:53;95211.81;;;3.33;62.52
30744;BME280;17486;46.738;7.622;2022-12-07T09:26:19;95202.28;;;3.38;62.64
30744;BME280;17486;46.738;7.622;2022-12-07T09:28:44;95242.88;;;3.61;62.13
30744;BME280;17486;46.738;7.622;2022-12-07T09:31:10;95250.44;;;3.69;62.45
30744;BME280;17486;46.738;7.622;2022-12-07T09:33:35;95199.84;;;3.70;62.46
30744;BME280;17486;46.738;7.622;2022-12-07T09:36:01;95237.53;;;4.08;62.44
30744;BME280;17486;46.738;7.622;2022-12-07T09:38:27;95239.81;;;4.21;62.36
30744;BME280;17486;46.738;7.622;2022-12-07T09:40:55;95236.63;;;4.44;62.02
30744;BME280;17486;46.738;7.622;2022-12-07T09:43:22;95197.94;;;4.47;61.67
30744;BME280;17486;46.738;7.622;2022-12-07T09:45:51;95239.09;;;4.81;60.90
30744;BME280;17486;46.738;7.622;2022-12-07T09:48:21;95192.91;;;4.74;60.09
30744;BME280;17486;46.738;7.622;2022-12-07T09:50:48;95217.16;;;4.98;59.74
30744;BME280;17486;46.738;7.622;2022-12-07T09:53:29;95227.44;;;5.00;58.66
30744;BME280;17486;46.738;7.622;2022-12-07T09:55:55;95193.53;;;4.84;58.42
30744;BME280;17486;46.738;7.622;2022-12-07T09:58:23;95204.53;;;4.89;58.60
30744;BME280;17486;46.738;7.622;2022-12-07T10:01:05;95211.38;;;4.90;58.05
30744;BME280;17486;46.738;7.622;2022-12-07T10:03:36;95212.78;;;5.00;58.41
30744;BME280;17486;46.738;7.622;2022-12-07T10:06:04;95183.28;;;4.80;57.66
30744;BME280;17486;46.738;7.622;2022-12-07T10:08:30;95211.00;;;5.04;58.15
30744;BME280;17486;46.738;7.622;2022-12-07T10:10:56;95216.97;;;5.04;57.99
30744;BME280;17486;46.738;7.622;2022-12-07T10:13:46;95216.03;;;5.08;57.71
30744;BME280;17486;46.738;7.622;2022-12-07T10:16:39;95200.56;;;5.08;56.93
30744;BME280;17486;46.738;7.622;2022-12-07T10:19:23;95210.88;;;5.08;57.18
30744;BME280;17486;46.738;7.622;2022-12-07T10:22:11;95214.22;;;5.10;56.74
30744;BME280;17486;46.738;7.622;2022-12-07T10:24:39;95200.69;;;5.04;57.17
30744;BME280;17486;46.738;7.622;2022-12-07T10:29:48;95175.38;;;4.87;56.89
30744;BME280;17486;46.738;7.622;2022-12-07T10:34:40;95200.56;;;5.08;57.19
30744;BME280;17486;46.738;7.622;2022-12-07T10:37:18;95193.78;;;5.04;57.07
30744;BME280;17486;46.738;7.622;2022-12-07T10:39:53;95176.75;;;4.98;57.28
30744;BME280;17486;46.738;7.622;2022-12-07T10:42:29;95202.41;;;5.03;57.54
30744;BME280;17486;46.738;7.622;2022-12-07T10:45:08;95157.44;;;4.84;57.90
30744;BME280;17486;46.738;7.622;2022-12-07T10:59:45;95167.13;;;5.05;56.99
30744;BME280;17486;46.738;7.622;2022-12-07T11:06:04;95165.97;;;5.15;57.04
30744;BME280;17486;46.738;7.622;2022-12-07T11:08:54;95156.47;;;5.18;56.95
30744;BME280;17486;46.738;7.622;2022-12-07T11:11:40;95160.56;;;5.23;56.75
30744;BME280;17486;46.738;7.622;2022-12-07T11:28:50;95135.44;;;5.30;55.84
30744;BME280;17486;46.738;7.622;2022-12-07T11:34:30;95139.50;;;5.39;55.39
30744;BME280;17486;46.738;7.622;2022-12-07T11:37:02;95141.78;;;5.48;55.84
30744;BME280;17486;46.738;7.622;2022-12-07T11:39:36;95124.41;;;5.53;55.44
30744;BME280;17486;46.738;7.622;2022-12-07T11:42:09;95119.06;;;5.59;55.82
30744;BME280;17486;46.738;7.622;2022-12-07T11:44:49;95126.53;;;5.67;55.39
30744;BME280;17486;46.738;7.622;2022-12-07T11:47:28;95090.88;;;5.53;55.50
30744;BME280;17486;46.738;7.622;2022-12-07T11:50:32;95090.94;;;5.52;55.25
30744;BME280;17486;46.738;7.622;2022-12-07T11:55:57;95116.22;;;5.67;55.14
30744;BME280;17486;46.738;7.622;2022-12-07T11:58:51;95117.13;;;5.66;55.30
30744;BME280;17486;46.738;7.622;2022-12-07T12:01:29;95103.38;;;5.65;55.06
30744;BME280;17486;46.738;7.622;2022-12-07T12:06:41;95100.75;;;5.67;55.32
30744;BME280;17486;46.738;7.622;2022-12-07T12:09:29;95057.66;;;5.44;54.92
30744;BME280;17486;46.738;7.622;2022-12-07T12:25:27;95086.25;;;5.63;56.95
30744;BME280;17486;46.738;7.622;2022-12-07T12:27:55;95083.53;;;5.68;57.86
30744;BME280;17486;46.738;7.622;2022-12-07T12:30:40;95065.28;;;5.74;58.36
30744;BME280;17486;46.738;7.622;2022-12-07T12:33:26;95065.13;;;5.78;57.47
30744;BME280;17486;46.738;7.622;2022-12-07T12:46:53;95019.09;;;5.66;55.23
30744;BME280;17486;46.738;7.622;2022-12-07T12:54:22;95020.06;;;5.62;54.24
30744;BME280;17486;46.738;7.622;2022-12-07T12:56:57;95051.53;;;5.73;54.77
30744;BME280;17486;46.738;7.622;2022-12-07T12:59:35;95047.06;;;5.78;54.62
30744;BME280;17486;46.738;7.622;2022-12-07T13:02:36;95050.63;;;5.74;54.07
30744;BME280;17486;46.738;7.622;2022-12-07T13:05:03;95054.97;;;5.74;54.53
30744;BME280;17486;46.738;7.622;2022-12-07T13:15:50;95025.78;;;5.46;54.31
30744;BME280;17486;46.738;7.622;2022-12-07T13:21:02;95033.44;;;5.48;54.46
30744;BME280;17486;46.738;7.622;2022-12-07T13:29:11;95024.22;;;5.41;54.78
30744;BME280;17486;46.738;7.622;2022-12-07T13:31:46;94997.50;;;5.17;55.02
30744;BME280;17486;46.738;7.622;2022-12-07T13:34:31;95017.72;;;5.29;55.19
30744;BME280;17486;46.738;7.622;2022-12-07T13:36:59;95006.00;;;5.20;54.99
30744;BME280;17486;46.738;7.622;2022-12-07T13:39:27;95012.78;;;5.23;55.02
30744;BME280;17486;46.738;7.622;2022-12-07T13:41:58;95001.03;;;5.14;55.11
30744;BME280;17486;46.738;7.622;2022-12-07T13:44:26;94971.34;;;5.02;55.17
30744;BME280;17486;46.738;7.622;2022-12-07T13:49:28;95011.00;;;5.25;54.64
30744;BME280;17486;46.738;7.622;2022-12-07T13:51:56;94973.75;;;5.07;54.05
30744;BME280;17486;46.738;7.622;2022-12-07T13:54:32;95004.19;;;5.22;54.43
30744;BME280;17486;46.738;7.622;2022-12-07T13:56:58;94999.78;;;5.26;54.37
30744;BME280;17486;46.738;7.622;2022-12-07T13:59:25;94999.94;;;5.21;54.72
30744;BME280;17486;46.738;7.622;2022-12-07T14:01:52;95013.38;;;5.31;54.32
30744;BME280;17486;46.738;7.622;2022-12-07T14:06:58;94988.66;;;5.25;54.25
30744;BME280;17486;46.738;7.622;2022-12-07T14:09:27;94998.03;;;5.26;54.16
30744;BME280;17486;46.738;7.622;2022-12-07T14:11:56;95008.22;;;5.31;53.88
30744;BME280;17486;46.738;7.622;2022-12-07T14:14:27;94962.56;;;5.08;54.32
30744;BME280;17486;46.738;7.622;2022-12-07T14:17:00;94965.94;;;5.10;54.14
30744;BME280;17486;46.738;7.622;2022-12-07T14:19:43;94995.47;;;5.26;54.36
30744;BME280;17486;46.738;7.622;2022-12-07T14:22:09;94993.56;;;5.31;53.94
30744;BME280;17486;46.738;7.622;2022-12-07T14:24:43;94987.59;;;5.31;53.88
30744;BME280;17486;46.738;7.622;2022-12-07T14:27:20;94987.00;;;5.23;54.05
30744;BME280;17486;46.738;7.622;2022-12-07T14:29:46;94998.00;;;5.28;54.41
30744;BME280;17486;46.738;7.622;2022-12-07T14:32:27;95011.88;;;5.24;54.05
30744;BME280;17486;46.738;7.622;2022-12-07T14:35:00;95003.38;;;5.22;54.19
30744;BME280;17486;46.738;7.622;2022-12-07T14:37:27;94963.59;;;5.02;54.36
30744;BME280;17486;46.738;7.622;2022-12-07T14:39:53;95002.56;;;5.20;53.90
30744;BME280;17486;46.738;7.622;2022-12-07T14:42:18;94964.69;;;4.95;53.85
30744;BME280;17486;46.738;7.622;2022-12-07T14:44:45;94968.19;;;4.94;54.39
30744;BME280;17486;46.738;7.622;2022-12-07T14:47:10;94964.78;;;4.92;54.03
30744;BME280;17486;46.738;7.622;2022-12-07T14:49:36;94989.91;;;5.12;54.08
30744;BME280;17486;46.738;7.622;2022-12-07T14:52:01;94967.25;;;4.95;54.23
30744;BME280;17486;46.738;7.622;2022-12-07T14:54:31;94979.84;;;5.04;54.08
30744;BME280;17486;46.738;7.622;2022-12-07T14:56:57;94970.75;;;4.94;54.83
30744;BME280;17486;46.738;7.622;2022-12-07T14:59:23;94972.47;;;4.93;54.53
30744;BME280;17486;46.738;7.622;2022-12-07T15:01:49;95011.34;;;5.14;55.11
30744;BME280;17486;46.738;7.622;2022-12-07T15:04:14;94974.88;;;5.00;54.93
30744;BME280;17486;46.738;7.622;2022-12-07T15:06:39;95001.88;;;5.14;55.51
30744;BME280;17486;46.738;7.622;2022-12-07T15:09:05;94964.69;;;4.95;55.97
30744;BME280;17486;46.738;7.622;2022-12-07T15:11:31;94999.28;;;5.14;55.63
30744;BME280;17486;46.738;7.622;2022-12-07T15:13:56;94997.75;;;5.09;56.09
30744;BME280;17486;46.738;7.622;2022-12-07T15:16:35;94989.19;;;5.08;56.51
30744;BME280;17486;46.738;7.622;2022-12-07T15:19:01;94990.13;;;5.06;56.59
30744;BME280;17486;46.738;7.622;2022-12-07T15:21:26;94983.47;;;4.98;56.75
30744;BME280;17486;46.738;7.622;2022-12-07T15:23:53;95003.91;;;5.05;56.48
30744;BME280;17486;46.738;7.622;2022-12-07T15:26:19;94966.63;;;4.88;56.57
30744;BME280;17486;46.738;7.622;2022-12-07T15:28:45;94958.84;;;4.90;57.01
30744;BME280;17486;46.738;7.622;2022-12-07T15:31:14;94998.75;;;5.05;56.88
30744;BME280;17486;46.738;7.622;2022-12-07T15:33:40;94955.56;;;4.85;57.20
30744;BME280;17486;46.738;7.622;2022-12-07T15:36:05;94987.63;;;5.03;56.88